sensor_id;sensor_type;location;lat;lon;timestamp;P1;durP1;ratioP1;P2;durP2;ratioP2
8327;SDS011;4201;48.754;8.864;2023-05-18T00:01:42;13.50;;;9.20;;
8327;SDS011;4201;48.754;8.864;2023-05-18T00:04:08;17.73;;;10.33;;
8327;SDS011;4201;48.754;8.864;2023-05-18T00:06:34;17.17;;;9.97;;
8327;SDS011;4201;48.754;8.864;2023-05-18T00:09:01;16.80;;;9.80;;
8327;SDS011;4201;48.754;8.864;2023-05-18T00:11:27;12.27;;;8.43;;
8327;SDS011;4201;48.754;8.864;2023-05-18T00:13:53;15.40;;;9.70;;
8327;SDS011;4201;48.754;8.864;2023-05-18T00:16:21;13.77;;;8.67;;
8327;SDS011;4201;48.754;8.864;2023-05-18T00:18:47;13.87;;;9.00;;
8327;SDS011;4201;48.754;8.864;2023-05-18T00:21:13;13.73;;;9.10;;
8327;SDS011;4201;48.754;8.864;2023-05-18T00:23:40;14.30;;;9.47;;
8327;SDS011;4201;48.754;8.864;2023-05-18T00:26:09;16.33;;;8.83;;
8327;SDS011;4201;48.754;8.864;2023-05-18T00:28:35;14.13;;;9.30;;
8327;SDS011;4201;48.754;8.864;2023-05-18T00:31:02;16.93;;;10.27;;
8327;SDS011;4201;48.754;8.864;2023-05-18T00:33:29;13.63;;;9.27;;
8327;SDS011;4201;48.754;8.864;2023-05-18T00:35:56;11.97;;;8.97;;
8327;SDS011;4201;48.754;8.864;2023-05-18T00:38:23;14.23;;;10.10;;
8327;SDS011;4201;48.754;8.864;2023-05-18T00:40:49;16.23;;;9.70;;
8327;SDS011;4201;48.754;8.864;2023-05-18T00:43:15;17.27;;;9.83;;
8327;SDS011;4201;48.754;8.864;2023-05-18T00:45:42;15.43;;;9.27;;
8327;SDS011;4201;48.754;8.864;2023-05-18T00:48:08;21.33;;;9.80;;
8327;SDS011;4201;48.754;8.864;2023-05-18T00:50:35;16.20;;;10.20;;
8327;SDS011;4201;48.754;8.864;2023-05-18T00:53:02;16.40;;;9.87;;
8327;SDS011;4201;48.754;8.864;2023-05-18T00:55:28;18.20;;;10.10;;
8327;SDS011;4201;48.754;8.864;2023-05-18T00:57:55;16.73;;;9.80;;
8327;SDS011;4201;48.754;8.864;2023-05-18T01:00:21;14.60;;;10.20;;
8327;SDS011;4201;48.754;8.864;2023-05-18T01:02:48;12.10;;;8.33;;
8327;SDS011;4201;48.754;8.864;2023-05-18T01:05:15;17.10;;;11.47;;
8327;SDS011;4201;48.754;8.864;2023-05-18T01:07:43;17.37;;;10.50;;
8327;SDS011;4201;48.754;8.864;2023-05-18T01:10:09;12.40;;;9.20;;
8327;SDS011;4201;48.754;8.864;2023-05-18T01:12:38;15.73;;;9.63;;
8327;SDS011;4201;48.754;8.864;2023-05-18T01:15:07;16.20;;;8.60;;
8327;SDS011;4201;48.754;8.864;2023-05-18T01:17:35;16.83;;;8.93;;
8327;SDS011;4201;48.754;8.864;2023-05-18T01:20:15;14.87;;;9.20;;
8327;SDS011;4201;48.754;8.864;2023-05-18T01:22:49;13.90;;;8.83;;
8327;SDS011;4201;48.754;8.864;2023-05-18T01:25:17;14.17;;;8.60;;
8327;SDS011;4201;48.754;8.864;2023-05-18T01:27:49;13.87;;;9.53;;
8327;SDS011;4201;48.754;8.864;2023-05-18T01:30:16;16.73;;;9.23;;
8327;SDS011;4201;48.754;8.864;2023-05-18T01:32:44;12.27;;;8.27;;
8327;SDS011;4201;48.754;8.864;2023-05-18T01:35:11;17.83;;;9.90;;
8327;SDS011;4201;48.754;8.864;2023-05-18T01:37:37;21.10;;;9.40;;
8327;SDS011;4201;48.754;8.864;2023-05-18T01:40:03;15.53;;;9.63;;
8327;SDS011;4201;48.754;8.864;2023-05-18T01:42:30;16.37;;;9.47;;
8327;SDS011;4201;48.754;8.864;2023-05-18T01:45:01;12.20;;;9.00;;
8327;SDS011;4201;48.754;8.864;2023-05-18T01:47:28;15.60;;;9.60;;
8327;SDS011;4201;48.754;8.864;2023-05-18T01:49:58;19.33;;;10.13;;
8327;SDS011;4201;48.754;8.864;2023-05-18T01:52:27;15.60;;;9.50;;
8327;SDS011;4201;48.754;8.864;2023-05-18T01:54:55;16.63;;;10.40;;
8327;SDS011;4201;48.754;8.864;2023-05-18T01:57:23;12.20;;;9.73;;
8327;SDS011;4201;48.754;8.864;2023-05-18T01:59:50;15.30;;;9.87;;
8327;SDS011;4201;48.754;8.864;2023-05-18T02:02:19;16.20;;;8.87;;
8327;SDS011;4201;48.754;8.864;2023-05-18T02:04:46;16.57;;;10.40;;
8327;SDS011;4201;48.754;8.864;2023-05-18T02:07:13;17.27;;;11.63;;
8327;SDS011;4201;48.754;8.864;2023-05-18T02:09:39;13.77;;;10.07;;
8327;SDS011;4201;48.754;8.864;2023-05-18T02:12:06;14.40;;;9.30;;
8327;SDS011;4201;48.754;8.864;2023-05-18T02:14:33;18.67;;;11.07;;
8327;SDS011;4201;48.754;8.864;2023-05-18T02:16:59;12.13;;;8.93;;
8327;SDS011;4201;48.754;8.864;2023-05-18T02:19:27;14.87;;;8.70;;
8327;SDS011;4201;48.754;8.864;2023-05-18T02:21:55;13.70;;;9.60;;
8327;SDS011;4201;48.754;8.864;2023-05-18T02:24:21;13.77;;;9.10;;
8327;SDS011;4201;48.754;8.864;2023-05-18T02:26:48;15.80;;;9.47;;
8327;SDS011;4201;48.754;8.864;2023-05-18T02:29:15;13.90;;;9.67;;
8327;SDS011;4201;48.754;8.864;2023-05-18T02:31:41;15.10;;;9.73;;
8327;SDS011;4201;48.754;8.864;2023-05-18T02:34:07;18.60;;;9.40;;
8327;SDS011;4201;48.754;8.864;2023-05-18T02:36:35;12.40;;;8.33;;
8327;SDS011;4201;48.754;8.864;2023-05-18T02:39:04;13.27;;;8.83;;
8327;SDS011;4201;48.754;8.864;2023-05-18T02:41:30;12.10;;;8.10;;
8327;SDS011;4201;48.754;8.864;2023-05-18T02:43:56;13.13;;;8.50;;
8327;SDS011;4201;48.754;8.864;2023-05-18T02:46:23;12.83;;;8.00;;
8327;SDS011;4201;48.754;8.864;2023-05-18T02:48:49;14.40;;;8.70;;
8327;SDS011;4201;48.754;8.864;2023-05-18T02:51:15;15.13;;;9.53;;
8327;SDS011;4201;48.754;8.864;2023-05-18T02:53:43;13.10;;;9.10;;
8327;SDS011;4201;48.754;8.864;2023-05-18T02:56:09;15.60;;;9.87;;
8327;SDS011;4201;48.754;8.864;2023-05-18T02:58:36;15.00;;;8.73;;
8327;SDS011;4201;48.754;8.864;2023-05-18T03:01:02;16.50;;;8.90;;
8327;SDS011;4201;48.754;8.864;2023-05-18T03:03:31;15.07;;;9.77;;
8327;SDS011;4201;48.754;8.864;2023-05-18T03:05:58;12.43;;;8.43;;
8327;SDS011;4201;48.754;8.864;2023-05-18T03:08:24;19.20;;;10.30;;
8327;SDS011;4201;48.754;8.864;2023-05-18T03:10:54;13.23;;;8.67;;
8327;SDS011;4201;48.754;8.864;2023-05-18T03:13:20;16.13;;;9.73;;
8327;SDS011;4201;48.754;8.864;2023-05-18T03:15:46;19.83;;;10.40;;
8327;SDS011;4201;48.754;8.864;2023-05-18T03:18:13;12.33;;;8.60;;
8327;SDS011;4201;48.754;8.864;2023-05-18T03:20:39;14.60;;;8.70;;
8327;SDS011;4201;48.754;8.864;2023-05-18T03:23:06;14.77;;;8.77;;
8327;SDS011;4201;48.754;8.864;2023-05-18T03:25:32;16.90;;;10.27;;
8327;SDS011;4201;48.754;8.864;2023-05-18T03:28:02;13.53;;;8.90;;
8327;SDS011;4201;48.754;8.864;2023-05-18T03:30:29;12.63;;;9.20;;
8327;SDS011;4201;48.754;8.864;2023-05-18T03:32:56;17.60;;;9.60;;
8327;SDS011;4201;48.754;8.864;2023-05-18T03:35:23;14.90;;;9.90;;
8327;SDS011;4201;48.754;8.864;2023-05-18T03:37:49;14.63;;;9.40;;
8327;SDS011;4201;48.754;8.864;2023-05-18T03:40:15;17.73;;;9.67;;
8327;SDS011;4201;48.754;8.864;2023-05-18T03:42:42;14.23;;;9.20;;
8327;SDS011;4201;48.754;8.864;2023-05-18T03:45:09;12.67;;;8.60;;
8327;SDS011;4201;48.754;8.864;2023-05-18T03:47:36;16.70;;;8.67;;
8327;SDS011;4201;48.754;8.864;2023-05-18T03:50:03;14.80;;;9.00;;
8327;SDS011;4201;48.754;8.864;2023-05-18T03:52:30;14.33;;;9.17;;
8327;SDS011;4201;48.754;8.864;2023-05-18T03:54:58;13.83;;;8.23;;
8327;SDS011;4201;48.754;8.864;2023-05-18T03:57:24;15.20;;;9.77;;
8327;SDS011;4201;48.754;8.864;2023-05-18T03:59:51;15.97;;;8.80;;
8327;SDS011;4201;48.754;8.864;2023-05-18T04:02:18;13.77;;;8.57;;
8327;SDS011;4201;48.754;8.864;2023-05-18T04:04:45;12.60;;;8.73;;
8327;SDS011;4201;48.754;8.864;2023-05-18T04:07:11;13.30;;;8.20;;
8327;SDS011;4201;48.754;8.864;2023-05-18T04:09:40;13.10;;;7.83;;
8327;SDS011;4201;48.754;8.864;2023-05-18T04:12:06;10.60;;;7.60;;
8327;SDS011;4201;48.754;8.864;2023-05-18T04:14:33;18.23;;;7.77;;
8327;SDS011;4201;48.754;8.864;2023-05-18T04:16:59;10.73;;;6.40;;
8327;SDS011;4201;48.754;8.864;2023-05-18T04:19:30;10.17;;;7.00;;
8327;SDS011;4201;48.754;8.864;2023-05-18T04:21:56;9.10;;;6.70;;
8327;SDS011;4201;48.754;8.864;2023-05-18T04:24:23;10.00;;;5.87;;
8327;SDS011;4201;48.754;8.864;2023-05-18T04:26:50;9.80;;;6.10;;
8327;SDS011;4201;48.754;8.864;2023-05-18T04:29:17;10.93;;;7.00;;
8327;SDS011;4201;48.754;8.864;2023-05-18T04:31:43;14.93;;;6.20;;
8327;SDS011;4201;48.754;8.864;2023-05-18T04:34:12;9.83;;;6.27;;
8327;SDS011;4201;48.754;8.864;2023-05-18T04:36:43;8.00;;;6.40;;
8327;SDS011;4201;48.754;8.864;2023-05-18T04:39:10;11.40;;;6.40;;
8327;SDS011;4201;48.754;8.864;2023-05-18T04:41:36;8.97;;;6.60;;
8327;SDS011;4201;48.754;8.864;2023-05-18T04:44:06;7.93;;;5.47;;
8327;SDS011;4201;48.754;8.864;2023-05-18T04:46:33;6.97;;;5.87;;
8327;SDS011;4201;48.754;8.864;2023-05-18T04:49:03;11.30;;;6.80;;
8327;SDS011;4201;48.754;8.864;2023-05-18T04:51:29;8.63;;;6.33;;
8327;SDS011;4201;48.754;8.864;2023-05-18T04:53:59;9.23;;;5.87;;
8327;SDS011;4201;48.754;8.864;2023-05-18T04:56:27;10.60;;;6.30;;
8327;SDS011;4201;48.754;8.864;2023-05-18T04:58:53;8.83;;;6.10;;
8327;SDS011;4201;48.754;8.864;2023-05-18T05:01:23;8.20;;;4.93;;
8327;SDS011;4201;48.754;8.864;2023-05-18T05:03:49;10.03;;;5.57;;
8327;SDS011;4201;48.754;8.864;2023-05-18T05:06:15;10.63;;;6.50;;
8327;SDS011;4201;48.754;8.864;2023-05-18T05:08:42;10.83;;;7.13;;
8327;SDS011;4201;48.754;8.864;2023-05-18T05:11:09;7.50;;;5.50;;
8327;SDS011;4201;48.754;8.864;2023-05-18T05:13:36;13.23;;;6.60;;
8327;SDS011;4201;48.754;8.864;2023-05-18T05:16:02;10.17;;;7.33;;
8327;SDS011;4201;48.754;8.864;2023-05-18T05:18:28;9.90;;;7.73;;
8327;SDS011;4201;48.754;8.864;2023-05-18T05:23:20;14.20;;;10.77;;
8327;SDS011;4201;48.754;8.864;2023-05-18T05:25:47;12.03;;;9.00;;
8327;SDS011;4201;48.754;8.864;2023-05-18T05:28:14;17.43;;;11.67;;
8327;SDS011;4201;48.754;8.864;2023-05-18T05:30:40;14.47;;;8.60;;
8327;SDS011;4201;48.754;8.864;2023-05-18T05:33:07;18.33;;;9.77;;
8327;SDS011;4201;48.754;8.864;2023-05-18T05:35:33;13.23;;;9.93;;
8327;SDS011;4201;48.754;8.864;2023-05-18T05:37:59;13.30;;;8.40;;
8327;SDS011;4201;48.754;8.864;2023-05-18T05:40:25;14.50;;;8.20;;
8327;SDS011;4201;48.754;8.864;2023-05-18T05:42:52;10.23;;;6.80;;
8327;SDS011;4201;48.754;8.864;2023-05-18T05:45:19;11.40;;;6.00;;
8327;SDS011;4201;48.754;8.864;2023-05-18T05:47:46;6.33;;;5.30;;
8327;SDS011;4201;48.754;8.864;2023-05-18T05:50:13;11.53;;;6.53;;
8327;SDS011;4201;48.754;8.864;2023-05-18T05:52:39;9.57;;;6.20;;
8327;SDS011;4201;48.754;8.864;2023-05-18T05:55:06;10.40;;;5.43;;
8327;SDS011;4201;48.754;8.864;2023-05-18T05:57:32;11.23;;;6.77;;
8327;SDS011;4201;48.754;8.864;2023-05-18T05:59:58;10.73;;;5.40;;
8327;SDS011;4201;48.754;8.864;2023-05-18T06:02:26;12.60;;;6.13;;
8327;SDS011;4201;48.754;8.864;2023-05-18T06:04:53;11.10;;;4.97;;
8327;SDS011;4201;48.754;8.864;2023-05-18T06:07:19;9.33;;;5.90;;
8327;SDS011;4201;48.754;8.864;2023-05-18T06:09:45;9.43;;;5.53;;
8327;SDS011;4201;48.754;8.864;2023-05-18T06:12:12;12.90;;;5.40;;
8327;SDS011;4201;48.754;8.864;2023-05-18T06:14:38;9.07;;;5.40;;
8327;SDS011;4201;48.754;8.864;2023-05-18T06:17:05;10.33;;;4.60;;
8327;SDS011;4201;48.754;8.864;2023-05-18T06:19:32;11.67;;;5.20;;
8327;SDS011;4201;48.754;8.864;2023-05-18T06:21:58;10.47;;;4.50;;
8327;SDS011;4201;48.754;8.864;2023-05-18T06:24:25;10.90;;;4.73;;
8327;SDS011;4201;48.754;8.864;2023-05-18T06:26:52;11.70;;;4.93;;
8327;SDS011;4201;48.754;8.864;2023-05-18T06:29:18;9.60;;;5.13;;
8327;SDS011;4201;48.754;8.864;2023-05-18T06:31:45;11.47;;;4.80;;
8327;SDS011;4201;48.754;8.864;2023-05-18T06:34:11;13.20;;;4.73;;
8327;SDS011;4201;48.754;8.864;2023-05-18T06:36:39;9.63;;;4.63;;
8327;SDS011;4201;48.754;8.864;2023-05-18T06:39:05;15.93;;;4.77;;
8327;SDS011;4201;48.754;8.864;2023-05-18T06:41:31;15.07;;;4.57;;
8327;SDS011;4201;48.754;8.864;2023-05-18T06:43:58;11.67;;;5.00;;
8327;SDS011;4201;48.754;8.864;2023-05-18T06:46:26;17.60;;;4.97;;
8327;SDS011;4201;48.754;8.864;2023-05-18T06:48:52;14.47;;;4.60;;
8327;SDS011;4201;48.754;8.864;2023-05-18T06:51:18;14.27;;;5.03;;
8327;SDS011;4201;48.754;8.864;2023-05-18T06:53:46;12.90;;;5.00;;
8327;SDS011;4201;48.754;8.864;2023-05-18T06:56:12;8.40;;;4.50;;
8327;SDS011;4201;48.754;8.864;2023-05-18T06:58:38;9.27;;;4.73;;
8327;SDS011;4201;48.754;8.864;2023-05-18T07:01:04;11.63;;;4.50;;
8327;SDS011;4201;48.754;8.864;2023-05-18T07:03:31;10.60;;;4.60;;
8327;SDS011;4201;48.754;8.864;2023-05-18T07:05:57;10.60;;;3.90;;
8327;SDS011;4201;48.754;8.864;2023-05-18T07:08:23;14.13;;;5.90;;
8327;SDS011;4201;48.754;8.864;2023-05-18T07:10:51;11.70;;;4.70;;
8327;SDS011;4201;48.754;8.864;2023-05-18T07:13:17;8.80;;;5.07;;
8327;SDS011;4201;48.754;8.864;2023-05-18T07:15:44;9.97;;;4.47;;
8327;SDS011;4201;48.754;8.864;2023-05-18T07:18:11;11.73;;;5.30;;
8327;SDS011;4201;48.754;8.864;2023-05-18T07:20:37;11.60;;;5.80;;
8327;SDS011;4201;48.754;8.864;2023-05-18T07:23:03;9.80;;;5.00;;
8327;SDS011;4201;48.754;8.864;2023-05-18T07:25:29;10.70;;;5.00;;
8327;SDS011;4201;48.754;8.864;2023-05-18T07:27:57;12.00;;;5.87;;
8327;SDS011;4201;48.754;8.864;2023-05-18T07:30:23;17.97;;;4.80;;
8327;SDS011;4201;48.754;8.864;2023-05-18T07:32:51;14.80;;;5.23;;
8327;SDS011;4201;48.754;8.864;2023-05-18T07:35:17;12.90;;;5.03;;
8327;SDS011;4201;48.754;8.864;2023-05-18T07:37:45;9.83;;;4.97;;
8327;SDS011;4201;48.754;8.864;2023-05-18T07:40:11;12.17;;;4.70;;
8327;SDS011;4201;48.754;8.864;2023-05-18T07:42:38;17.23;;;5.70;;
8327;SDS011;4201;48.754;8.864;2023-05-18T07:45:06;9.93;;;5.43;;
8327;SDS011;4201;48.754;8.864;2023-05-18T07:47:33;12.90;;;5.70;;
8327;SDS011;4201;48.754;8.864;2023-05-18T07:49:59;7.97;;;4.77;;
8327;SDS011;4201;48.754;8.864;2023-05-18T07:52:26;13.87;;;5.90;;
8327;SDS011;4201;48.754;8.864;2023-05-18T07:54:53;16.57;;;6.40;;
8327;SDS011;4201;48.754;8.864;2023-05-18T07:57:20;10.17;;;4.43;;
8327;SDS011;4201;48.754;8.864;2023-05-18T07:59:46;11.83;;;5.30;;
8327;SDS011;4201;48.754;8.864;2023-05-18T08:02:14;10.43;;;4.60;;
8327;SDS011;4201;48.754;8.864;2023-05-18T08:04:40;11.27;;;5.80;;
8327;SDS011;4201;48.754;8.864;2023-05-18T08:07:06;14.00;;;5.50;;
8327;SDS011;4201;48.754;8.864;2023-05-18T08:09:33;16.93;;;5.93;;
8327;SDS011;4201;48.754;8.864;2023-05-18T08:11:59;13.03;;;5.83;;
8327;SDS011;4201;48.754;8.864;2023-05-18T08:14:25;13.00;;;5.70;;
8327;SDS011;4201;48.754;8.864;2023-05-18T08:16:52;16.13;;;6.53;;
8327;SDS011;4201;48.754;8.864;2023-05-18T08:19:19;11.87;;;5.50;;
8327;SDS011;4201;48.754;8.864;2023-05-18T08:21:45;12.90;;;5.23;;
8327;SDS011;4201;48.754;8.864;2023-05-18T08:24:12;12.03;;;5.63;;
8327;SDS011;4201;48.754;8.864;2023-05-18T08:26:38;16.83;;;6.80;;
8327;SDS011;4201;48.754;8.864;2023-05-18T08:29:04;14.53;;;7.70;;
8327;SDS011;4201;48.754;8.864;2023-05-18T08:31:34;15.67;;;6.73;;
8327;SDS011;4201;48.754;8.864;2023-05-18T08:34:00;10.70;;;6.70;;
8327;SDS011;4201;48.754;8.864;2023-05-18T08:36:28;38.40;;;27.20;;
8327;SDS011;4201;48.754;8.864;2023-05-18T08:38:54;14.93;;;6.67;;
8327;SDS011;4201;48.754;8.864;2023-05-18T08:41:22;13.53;;;8.33;;
8327;SDS011;4201;48.754;8.864;2023-05-18T08:43:52;16.33;;;7.90;;
8327;SDS011;4201;48.754;8.864;2023-05-18T08:46:19;14.77;;;7.27;;
8327;SDS011;4201;48.754;8.864;2023-05-18T08:48:45;16.60;;;8.23;;
8327;SDS011;4201;48.754;8.864;2023-05-18T08:51:12;13.30;;;7.60;;
8327;SDS011;4201;48.754;8.864;2023-05-18T08:53:40;16.10;;;6.20;;
8327;SDS011;4201;48.754;8.864;2023-05-18T08:56:07;13.47;;;7.63;;
8327;SDS011;4201;48.754;8.864;2023-05-18T08:58:35;16.03;;;7.37;;
8327;SDS011;4201;48.754;8.864;2023-05-18T09:01:03;20.37;;;12.13;;
8327;SDS011;4201;48.754;8.864;2023-05-18T09:03:30;12.40;;;6.50;;
8327;SDS011;4201;48.754;8.864;2023-05-18T09:05:56;12.43;;;6.67;;
8327;SDS011;4201;48.754;8.864;2023-05-18T09:08:24;19.10;;;6.80;;
8327;SDS011;4201;48.754;8.864;2023-05-18T09:10:52;15.17;;;7.90;;
8327;SDS011;4201;48.754;8.864;2023-05-18T09:13:21;13.77;;;7.53;;
8327;SDS011;4201;48.754;8.864;2023-05-18T09:15:48;11.17;;;5.20;;
8327;SDS011;4201;48.754;8.864;2023-05-18T09:18:15;12.60;;;6.47;;
8327;SDS011;4201;48.754;8.864;2023-05-18T09:20:41;14.70;;;6.03;;
8327;SDS011;4201;48.754;8.864;2023-05-18T09:23:07;13.77;;;6.93;;
8327;SDS011;4201;48.754;8.864;2023-05-18T09:25:36;12.40;;;5.73;;
8327;SDS011;4201;48.754;8.864;2023-05-18T09:28:08;12.27;;;6.27;;
8327;SDS011;4201;48.754;8.864;2023-05-18T09:30:38;12.63;;;6.10;;
8327;SDS011;4201;48.754;8.864;2023-05-18T09:33:04;11.40;;;5.37;;
8327;SDS011;4201;48.754;8.864;2023-05-18T09:35:31;9.60;;;6.60;;
8327;SDS011;4201;48.754;8.864;2023-05-18T09:38:01;9.23;;;4.43;;
8327;SDS011;4201;48.754;8.864;2023-05-18T09:40:28;15.47;;;5.70;;
8327;SDS011;4201;48.754;8.864;2023-05-18T09:42:54;16.07;;;6.40;;
8327;SDS011;4201;48.754;8.864;2023-05-18T09:45:22;18.20;;;4.60;;
8327;SDS011;4201;48.754;8.864;2023-05-18T09:47:50;8.70;;;4.67;;
8327;SDS011;4201;48.754;8.864;2023-05-18T09:50:17;8.73;;;5.27;;
8327;SDS011;4201;48.754;8.864;2023-05-18T09:52:44;13.23;;;5.80;;
8327;SDS011;4201;48.754;8.864;2023-05-18T09:55:11;12.60;;;4.57;;
8327;SDS011;4201;48.754;8.864;2023-05-18T09:57:40;16.93;;;6.07;;
8327;SDS011;4201;48.754;8.864;2023-05-18T10:00:07;12.03;;;4.60;;
8327;SDS011;4201;48.754;8.864;2023-05-18T10:02:37;11.00;;;4.57;;
8327;SDS011;4201;48.754;8.864;2023-05-18T10:05:04;10.20;;;4.83;;
8327;SDS011;4201;48.754;8.864;2023-05-18T10:07:31;7.87;;;4.63;;
8327;SDS011;4201;48.754;8.864;2023-05-18T10:10:00;14.00;;;5.23;;
8327;SDS011;4201;48.754;8.864;2023-05-18T10:12:27;9.33;;;4.60;;
8327;SDS011;4201;48.754;8.864;2023-05-18T10:14:53;21.43;;;5.90;;
8327;SDS011;4201;48.754;8.864;2023-05-18T10:17:19;15.30;;;5.07;;
8327;SDS011;4201;48.754;8.864;2023-05-18T10:19:47;10.23;;;4.50;;
8327;SDS011;4201;48.754;8.864;2023-05-18T10:22:15;12.03;;;4.93;;
8327;SDS011;4201;48.754;8.864;2023-05-18T10:24:44;12.60;;;4.63;;
8327;SDS011;4201;48.754;8.864;2023-05-18T10:27:10;17.70;;;6.90;;
8327;SDS011;4201;48.754;8.864;2023-05-18T10:29:39;10.70;;;5.50;;
8327;SDS011;4201;48.754;8.864;2023-05-18T10:32:06;13.97;;;5.40;;
8327;SDS011;4201;48.754;8.864;2023-05-18T10:34:36;11.17;;;5.10;;
8327;SDS011;4201;48.754;8.864;2023-05-18T10:37:04;13.10;;;4.80;;
8327;SDS011;4201;48.754;8.864;2023-05-18T10:39:32;17.43;;;4.87;;
8327;SDS011;4201;48.754;8.864;2023-05-18T10:41:59;12.73;;;6.00;;
8327;SDS011;4201;48.754;8.864;2023-05-18T10:44:25;15.03;;;4.70;;
8327;SDS011;4201;48.754;8.864;2023-05-18T10:46:51;10.50;;;4.83;;
8327;SDS011;4201;48.754;8.864;2023-05-18T10:49:19;12.93;;;4.90;;
8327;SDS011;4201;48.754;8.864;2023-05-18T10:51:49;13.40;;;5.20;;
8327;SDS011;4201;48.754;8.864;2023-05-18T10:54:18;12.10;;;5.20;;
8327;SDS011;4201;48.754;8.864;2023-05-18T10:56:46;9.43;;;4.63;;
8327;SDS011;4201;48.754;8.864;2023-05-18T10:59:14;15.30;;;4.03;;
8327;SDS011;4201;48.754;8.864;2023-05-18T11:01:42;10.67;;;5.57;;
8327;SDS011;4201;48.754;8.864;2023-05-18T11:04:09;11.97;;;5.20;;
8327;SDS011;4201;48.754;8.864;2023-05-18T11:06:36;11.37;;;4.97;;
8327;SDS011;4201;48.754;8.864;2023-05-18T11:09:03;8.60;;;4.37;;
8327;SDS011;4201;48.754;8.864;2023-05-18T11:11:31;8.23;;;4.50;;
8327;SDS011;4201;48.754;8.864;2023-05-18T11:14:15;9.90;;;5.20;;
8327;SDS011;4201;48.754;8.864;2023-05-18T11:16:49;13.20;;;5.47;;
8327;SDS011;4201;48.754;8.864;2023-05-18T11:19:16;10.50;;;4.60;;
8327;SDS011;4201;48.754;8.864;2023-05-18T11:24:13;11.53;;;4.73;;
8327;SDS011;4201;48.754;8.864;2023-05-18T11:26:42;14.47;;;5.60;;
8327;SDS011;4201;48.754;8.864;2023-05-18T11:29:14;10.27;;;4.30;;
8327;SDS011;4201;48.754;8.864;2023-05-18T11:31:44;7.60;;;3.97;;
8327;SDS011;4201;48.754;8.864;2023-05-18T11:36:51;11.97;;;5.03;;
8327;SDS011;4201;48.754;8.864;2023-05-18T11:39:22;11.07;;;4.40;;
8327;SDS011;4201;48.754;8.864;2023-05-18T11:41:57;8.57;;;4.90;;
8327;SDS011;4201;48.754;8.864;2023-05-18T11:44:23;14.47;;;4.67;;
8327;SDS011;4201;48.754;8.864;2023-05-18T11:46:58;15.10;;;5.10;;
8327;SDS011;4201;48.754;8.864;2023-05-18T11:49:25;14.27;;;4.57;;
8327;SDS011;4201;48.754;8.864;2023-05-18T11:52:02;9.53;;;4.00;;
8327;SDS011;4201;48.754;8.864;2023-05-18T11:54:32;8.40;;;4.37;;
8327;SDS011;4201;48.754;8.864;2023-05-18T11:57:00;8.30;;;3.83;;
8327;SDS011;4201;48.754;8.864;2023-05-18T11:59:30;10.00;;;4.10;;
8327;SDS011;4201;48.754;8.864;2023-05-18T12:01:57;12.10;;;5.30;;
8327;SDS011;4201;48.754;8.864;2023-05-18T12:04:24;11.13;;;4.47;;
8327;SDS011;4201;48.754;8.864;2023-05-18T12:06:51;7.23;;;4.10;;
8327;SDS011;4201;48.754;8.864;2023-05-18T12:09:18;7.77;;;4.03;;
8327;SDS011;4201;48.754;8.864;2023-05-18T12:11:45;12.90;;;5.00;;
8327;SDS011;4201;48.754;8.864;2023-05-18T12:14:12;12.70;;;4.93;;
8327;SDS011;4201;48.754;8.864;2023-05-18T12:16:39;9.50;;;3.93;;
8327;SDS011;4201;48.754;8.864;2023-05-18T12:19:06;7.37;;;4.27;;
8327;SDS011;4201;48.754;8.864;2023-05-18T12:21:33;10.57;;;4.33;;
8327;SDS011;4201;48.754;8.864;2023-05-18T12:24:00;9.17;;;4.73;;
8327;SDS011;4201;48.754;8.864;2023-05-18T12:26:26;8.63;;;4.57;;
8327;SDS011;4201;48.754;8.864;2023-05-18T12:28:53;11.30;;;5.20;;
8327;SDS011;4201;48.754;8.864;2023-05-18T12:31:21;11.03;;;4.80;;
8327;SDS011;4201;48.754;8.864;2023-05-18T12:33:48;10.30;;;4.30;;
8327;SDS011;4201;48.754;8.864;2023-05-18T12:36:15;10.07;;;4.87;;
8327;SDS011;4201;48.754;8.864;2023-05-18T12:38:42;13.20;;;4.37;;
8327;SDS011;4201;48.754;8.864;2023-05-18T12:41:08;17.57;;;4.67;;
8327;SDS011;4201;48.754;8.864;2023-05-18T12:43:34;12.50;;;6.03;;
8327;SDS011;4201;48.754;8.864;2023-05-18T12:46:01;8.17;;;4.60;;
8327;SDS011;4201;48.754;8.864;2023-05-18T12:48:33;12.33;;;6.30;;
8327;SDS011;4201;48.754;8.864;2023-05-18T12:51:00;11.00;;;4.57;;
8327;SDS011;4201;48.754;8.864;2023-05-18T12:53:26;16.13;;;5.30;;
8327;SDS011;4201;48.754;8.864;2023-05-18T12:55:55;11.13;;;4.97;;
8327;SDS011;4201;48.754;8.864;2023-05-18T12:58:22;14.03;;;6.90;;
8327;SDS011;4201;48.754;8.864;2023-05-18T13:00:49;13.50;;;4.80;;
8327;SDS011;4201;48.754;8.864;2023-05-18T13:03:16;12.80;;;6.93;;
8327;SDS011;4201;48.754;8.864;2023-05-18T13:05:45;12.17;;;5.63;;
8327;SDS011;4201;48.754;8.864;2023-05-18T13:08:12;8.37;;;4.47;;
8327;SDS011;4201;48.754;8.864;2023-05-18T13:10:39;24.07;;;13.13;;
8327;SDS011;4201;48.754;8.864;2023-05-18T13:13:08;7.37;;;3.73;;
8327;SDS011;4201;48.754;8.864;2023-05-18T13:15:34;10.17;;;3.67;;
8327;SDS011;4201;48.754;8.864;2023-05-18T13:18:02;11.57;;;7.13;;
8327;SDS011;4201;48.754;8.864;2023-05-18T13:20:29;8.20;;;3.90;;
8327;SDS011;4201;48.754;8.864;2023-05-18T13:22:58;11.30;;;3.60;;
8327;SDS011;4201;48.754;8.864;2023-05-18T13:25:24;7.97;;;4.33;;
8327;SDS011;4201;48.754;8.864;2023-05-18T13:27:50;7.00;;;3.67;;
8327;SDS011;4201;48.754;8.864;2023-05-18T13:30:19;7.93;;;3.90;;
8327;SDS011;4201;48.754;8.864;2023-05-18T13:32:45;10.20;;;4.40;;
8327;SDS011;4201;48.754;8.864;2023-05-18T13:35:11;12.17;;;4.77;;
8327;SDS011;4201;48.754;8.864;2023-05-18T13:37:38;9.90;;;3.80;;
8327;SDS011;4201;48.754;8.864;2023-05-18T13:40:06;7.70;;;3.83;;
8327;SDS011;4201;48.754;8.864;2023-05-18T13:42:33;9.23;;;4.30;;
8327;SDS011;4201;48.754;8.864;2023-05-18T13:44:59;12.20;;;4.83;;
8327;SDS011;4201;48.754;8.864;2023-05-18T13:47:25;5.77;;;3.50;;
8327;SDS011;4201;48.754;8.864;2023-05-18T13:49:51;7.97;;;4.23;;
8327;SDS011;4201;48.754;8.864;2023-05-18T13:52:17;12.60;;;4.00;;
8327;SDS011;4201;48.754;8.864;2023-05-18T13:54:44;7.90;;;3.60;;
8327;SDS011;4201;48.754;8.864;2023-05-18T13:57:11;9.47;;;3.90;;
8327;SDS011;4201;48.754;8.864;2023-05-18T13:59:37;11.33;;;3.70;;
8327;SDS011;4201;48.754;8.864;2023-05-18T14:02:04;8.80;;;3.67;;
8327;SDS011;4201;48.754;8.864;2023-05-18T14:04:31;9.80;;;3.80;;
8327;SDS011;4201;48.754;8.864;2023-05-18T14:06:57;10.23;;;3.97;;
8327;SDS011;4201;48.754;8.864;2023-05-18T14:09:23;7.07;;;3.50;;
8327;SDS011;4201;48.754;8.864;2023-05-18T14:11:50;11.83;;;4.67;;
8327;SDS011;4201;48.754;8.864;2023-05-18T14:14:17;10.90;;;3.83;;
8327;SDS011;4201;48.754;8.864;2023-05-18T14:16:43;9.07;;;3.63;;
8327;SDS011;4201;48.754;8.864;2023-05-18T14:19:10;8.80;;;3.50;;
8327;SDS011;4201;48.754;8.864;2023-05-18T14:21:36;12.83;;;3.50;;
8327;SDS011;4201;48.754;8.864;2023-05-18T14:24:02;12.30;;;3.80;;
8327;SDS011;4201;48.754;8.864;2023-05-18T14:26:31;9.70;;;3.90;;
8327;SDS011;4201;48.754;8.864;2023-05-18T14:28:57;6.07;;;3.60;;
8327;SDS011;4201;48.754;8.864;2023-05-18T14:31:25;9.03;;;3.37;;
8327;SDS011;4201;48.754;8.864;2023-05-18T14:33:52;9.50;;;4.40;;
8327;SDS011;4201;48.754;8.864;2023-05-18T14:36:18;10.63;;;3.77;;
8327;SDS011;4201;48.754;8.864;2023-05-18T14:38:44;12.77;;;3.63;;
8327;SDS011;4201;48.754;8.864;2023-05-18T14:41:11;12.50;;;3.97;;
8327;SDS011;4201;48.754;8.864;2023-05-18T14:43:37;9.40;;;4.17;;
8327;SDS011;4201;48.754;8.864;2023-05-18T14:46:03;10.80;;;3.27;;
8327;SDS011;4201;48.754;8.864;2023-05-18T14:48:31;9.30;;;3.53;;
8327;SDS011;4201;48.754;8.864;2023-05-18T14:50:57;8.60;;;3.30;;
8327;SDS011;4201;48.754;8.864;2023-05-18T14:53:23;13.93;;;3.60;;
8327;SDS011;4201;48.754;8.864;2023-05-18T14:55:50;10.23;;;4.03;;
8327;SDS011;4201;48.754;8.864;2023-05-18T14:58:16;9.40;;;3.10;;
8327;SDS011;4201;48.754;8.864;2023-05-18T15:00:42;13.07;;;4.03;;
8327;SDS011;4201;48.754;8.864;2023-05-18T15:03:08;10.40;;;3.97;;
8327;SDS011;4201;48.754;8.864;2023-05-18T15:05:36;8.20;;;3.20;;
8327;SDS011;4201;48.754;8.864;2023-05-18T15:08:02;11.83;;;3.80;;
8327;SDS011;4201;48.754;8.864;2023-05-18T15:10:29;9.23;;;3.50;;